LFKF/FSC METAR and TAF weather

Enter ICAO airport designator
Station Type Date Time Source
LFKF METAR 2019/08/22 05:00 UTC NOAA

LFKF 220500Z AUTO 07007KT CAVOK 24/21 Q1017 NOSIG


Station Type Date Time Source
LFKF Decoded METAR 2019/08/22 05:00 UTC NOAA

Station name not available
Aug 22, 2019 - 01:00 AM EDT / 2019.08.22 0500 UTC
Wind: from the ENE (070 degrees) at 8 MPH (7 KT):0
Visibility: greater than 7 mile(s):0
Temperature: 75 F (24 C)
Dew Point: 69 F (21 C)
Relative Humidity: 83%
Pressure (altimeter): 30.03 in. Hg (1017 hPa)
ob: LFKF 220500Z AUTO 07007KT CAVOK 24/21 Q1017 NOSIG
cycle: 5

Station Type Date Time Source
LFKF TAF 2019/08/22 03:42 UTC NOAA

TAF TAF LFKF 220200Z 2203/2303 07008KT CAVOK
TEMPO 2216/2303 VRB03KT SCT050CB

Example: see airport list